createdAt,value
2022-08-28T00:01:42.756Z,24.00
2022-08-28T00:04:10.518Z,24.00
2022-08-28T00:06:38.596Z,24.00
2022-08-28T00:09:17.301Z,24.00
2022-08-28T00:11:45.009Z,24.10
2022-08-28T00:14:14.107Z,24.10
2022-08-28T00:16:42.237Z,24.10
2022-08-28T00:19:11.358Z,24.10
2022-08-28T00:21:39.097Z,24.10
2022-08-28T00:24:09.119Z,24.10
2022-08-28T00:26:55.067Z,24.10
2022-08-28T00:29:24.320Z,24.10
2022-08-28T00:31:51.965Z,24.10
2022-08-28T00:34:19.436Z,24.10
2022-08-28T00:36:56.057Z,24.10
2022-08-28T00:39:24.302Z,24.10
2022-08-28T00:41:57.754Z,24.10
2022-08-28T00:44:28.347Z,24.10
2022-08-28T00:46:59.957Z,24.10
2022-08-28T00:49:36.047Z,24.10
2022-08-28T00:52:12.453Z,24.10
2022-08-28T00:54:58.694Z,24.10
2022-08-28T00:57:48.741Z,24.10
2022-08-28T01:00:30.758Z,24.10
2022-08-28T01:02:59.251Z,24.10
2022-08-28T01:05:29.330Z,24.10
2022-08-28T01:08:00.001Z,24.00
2022-08-28T01:10:31.564Z,24.00
2022-08-28T01:12:59.928Z,24.00
2022-08-28T01:15:33.507Z,24.00
2022-08-28T01:18:08.498Z,24.00
2022-08-28T01:20:44.514Z,24.00
2022-08-28T01:23:46.056Z,23.90
2022-08-28T01:26:15.941Z,23.90
2022-08-28T01:28:44.003Z,23.90
2022-08-28T01:31:14.159Z,23.90
2022-08-28T01:33:44.135Z,23.90
2022-08-28T01:36:13.819Z,23.90
2022-08-28T01:38:45.263Z,23.90
2022-08-28T01:41:14.158Z,23.90
2022-08-28T01:43:43.166Z,23.90
2022-08-28T01:46:12.690Z,23.90
2022-08-28T01:48:43.915Z,23.90
2022-08-28T01:51:12.729Z,23.90
2022-08-28T01:53:45.144Z,23.90
2022-08-28T01:56:17.956Z,23.90
2022-08-28T01:58:45.913Z,23.90
2022-08-28T02:01:18.141Z,23.90
2022-08-28T02:03:46.376Z,23.90
2022-08-28T02:06:15.698Z,23.90
2022-08-28T02:08:43.021Z,23.90
2022-08-28T02:11:11.767Z,23.90
2022-08-28T02:13:41.180Z,23.90
2022-08-28T02:16:10.817Z,23.90
2022-08-28T02:18:38.985Z,23.90
2022-08-28T02:21:08.059Z,23.90
2022-08-28T02:23:38.771Z,23.90
2022-08-28T02:26:07.374Z,23.90
2022-08-28T02:28:35.529Z,23.80
2022-08-28T02:31:03.425Z,23.80
2022-08-28T02:36:17.699Z,23.80
2022-08-28T02:38:46.315Z,23.80
2022-08-28T02:41:14.665Z,23.80
2022-08-28T02:43:41.961Z,23.80
2022-08-28T02:46:10.453Z,23.80
2022-08-28T02:48:40.507Z,23.90
2022-08-28T02:51:13.385Z,23.90
2022-08-28T02:53:42.484Z,23.90
2022-08-28T02:56:10.792Z,23.90
2022-08-28T02:58:40.346Z,23.90
2022-08-28T03:01:12.495Z,23.90
2022-08-28T03:03:41.489Z,23.90
2022-08-28T03:06:12.803Z,23.90
2022-08-28T03:08:42.371Z,23.90
2022-08-28T03:11:10.295Z,23.90
2022-08-28T03:13:37.998Z,23.90
2022-08-28T03:16:06.671Z,23.90
2022-08-28T03:18:35.216Z,23.90
2022-08-28T03:21:03.228Z,23.90
2022-08-28T03:23:33.000Z,23.90
2022-08-28T03:26:14.148Z,23.90
2022-08-28T03:28:48.500Z,23.90
2022-08-28T03:31:22.101Z,23.90
2022-08-28T03:33:50.379Z,23.90
2022-08-28T03:36:23.340Z,23.90
2022-08-28T03:38:54.511Z,23.90
2022-08-28T03:41:25.514Z,23.90
2022-08-28T03:43:53.159Z,23.90
2022-08-28T03:46:24.151Z,23.90
2022-08-28T03:48:53.972Z,23.90
2022-08-28T03:51:29.764Z,23.90
2022-08-28T03:53:59.555Z,23.90
2022-08-28T03:56:30.379Z,23.90
2022-08-28T03:59:01.960Z,23.90
2022-08-28T04:01:29.288Z,23.90
2022-08-28T04:03:58.237Z,23.90
2022-08-28T04:06:25.736Z,23.90
2022-08-28T04:08:53.237Z,23.90
2022-08-28T04:11:20.947Z,23.90
2022-08-28T04:13:49.962Z,23.90
2022-08-28T04:16:19.904Z,23.90
2022-08-28T04:18:50.274Z,23.90
2022-08-28T04:21:24.190Z,23.90
2022-08-28T04:23:52.400Z,23.90
2022-08-28T04:26:27.367Z,23.90
2022-08-28T04:28:56.210Z,23.90
2022-08-28T04:31:31.972Z,23.90
2022-08-28T04:34:06.381Z,23.90
2022-08-28T04:36:36.451Z,23.90
2022-08-28T04:39:08.750Z,23.90
2022-08-28T04:41:40.337Z,24.00
2022-08-28T04:44:08.511Z,23.90
2022-08-28T04:46:36.979Z,23.90
2022-08-28T04:49:04.645Z,24.00
2022-08-28T04:51:33.152Z,24.00
2022-08-28T04:54:03.579Z,24.00
2022-08-28T04:56:31.545Z,24.00
2022-08-28T04:59:00.889Z,24.00
2022-08-28T05:01:28.403Z,24.00
2022-08-28T05:03:59.876Z,24.00
2022-08-28T05:06:30.411Z,23.90
2022-08-28T05:08:59.409Z,24.00
2022-08-28T05:11:33.394Z,23.90
2022-08-28T05:14:15.837Z,24.00
2022-08-28T05:16:50.093Z,23.90
2022-08-28T05:19:19.953Z,23.90
2022-08-28T05:21:48.340Z,23.90
2022-08-28T05:24:16.545Z,23.90
2022-08-28T05:26:44.043Z,24.00
2022-08-28T05:29:16.931Z,23.90
2022-08-28T05:31:46.380Z,23.90
2022-08-28T05:34:15.639Z,24.00
2022-08-28T05:36:43.188Z,24.00
2022-08-28T05:39:12.460Z,24.00
2022-08-28T05:41:42.470Z,24.00
2022-08-28T05:44:14.586Z,24.00
2022-08-28T05:46:46.896Z,24.00
2022-08-28T05:49:19.633Z,24.00
2022-08-28T05:51:47.229Z,24.00
2022-08-28T05:54:15.948Z,24.10
2022-08-28T05:56:46.074Z,24.10
2022-08-28T05:59:14.974Z,24.10
2022-08-28T06:01:46.316Z,24.20
2022-08-28T06:04:26.889Z,24.30
2022-08-28T06:06:55.159Z,24.30
2022-08-28T06:09:30.271Z,24.40
2022-08-28T06:12:01.872Z,24.40
2022-08-28T06:14:50.493Z,24.50
2022-08-28T06:17:23.572Z,24.50
2022-08-28T06:19:51.207Z,24.50
2022-08-28T06:22:19.891Z,24.60
2022-08-28T06:24:47.129Z,24.60
2022-08-28T06:27:14.589Z,24.70
2022-08-28T06:29:41.992Z,24.70
2022-08-28T06:32:10.069Z,24.80
2022-08-28T06:34:37.574Z,24.80
2022-08-28T06:37:05.208Z,24.80
2022-08-28T06:39:32.297Z,24.80
2022-08-28T06:42:00.676Z,24.90
2022-08-28T06:44:28.964Z,24.90
2022-08-28T06:46:56.393Z,24.90
2022-08-28T06:49:24.284Z,24.90
2022-08-28T06:51:53.152Z,24.90
2022-08-28T06:54:23.201Z,25.00
2022-08-28T06:56:52.926Z,25.00
2022-08-28T06:59:20.348Z,24.90
2022-08-28T07:01:48.349Z,24.90
2022-08-28T07:04:16.131Z,25.00
2022-08-28T07:06:53.786Z,25.00
2022-08-28T07:09:24.454Z,25.00
2022-08-28T07:11:52.577Z,25.10
2022-08-28T07:14:19.913Z,25.10
2022-08-28T07:16:47.626Z,25.10
2022-08-28T07:19:15.789Z,25.20
2022-08-28T07:21:45.566Z,25.20
2022-08-28T07:24:16.651Z,25.20
2022-08-28T07:26:46.066Z,25.20
2022-08-28T07:29:14.702Z,25.30
2022-08-28T07:31:53.016Z,25.30
2022-08-28T07:34:27.046Z,25.30
2022-08-28T07:36:56.513Z,25.30
2022-08-28T07:39:24.487Z,25.30
2022-08-28T07:41:51.826Z,25.40
2022-08-28T07:44:38.138Z,25.40
2022-08-28T07:47:08.894Z,25.40
2022-08-28T07:49:36.624Z,25.40
2022-08-28T07:52:06.480Z,25.40
2022-08-28T07:54:36.318Z,25.40
2022-08-28T07:57:12.039Z,25.40
2022-08-28T07:59:42.444Z,25.40
2022-08-28T08:02:10.855Z,25.40
2022-08-28T08:04:38.365Z,25.40
2022-08-28T08:07:06.483Z,25.40
2022-08-28T08:09:42.584Z,25.40
2022-08-28T08:12:13.289Z,25.40
2022-08-28T08:14:43.169Z,25.40
2022-08-28T08:17:12.302Z,25.40
2022-08-28T08:19:40.120Z,25.40
2022-08-28T08:22:07.897Z,25.50
2022-08-28T08:24:35.453Z,25.50
2022-08-28T08:27:03.452Z,25.50
2022-08-28T08:29:38.825Z,25.60
2022-08-28T08:32:12.486Z,25.60
2022-08-28T08:34:43.869Z,25.60
2022-08-28T08:39:58.427Z,25.60
2022-08-28T08:42:31.266Z,25.60
2022-08-28T08:45:04.280Z,25.50
2022-08-28T08:47:53.637Z,25.50
2022-08-28T08:50:35.408Z,25.60
2022-08-28T08:53:28.522Z,25.60
2022-08-28T08:56:00.297Z,25.60
2022-08-28T08:58:36.895Z,25.70
2022-08-28T09:01:29.361Z,25.70
2022-08-28T09:04:32.645Z,25.80
2022-08-28T09:07:05.122Z,25.80
2022-08-28T09:09:42.748Z,25.80
2022-08-28T09:12:24.388Z,25.80
2022-08-28T09:15:08.903Z,25.90
2022-08-28T09:17:49.228Z,25.90
2022-08-28T09:20:30.237Z,25.90
2022-08-28T09:23:01.983Z,25.90
2022-08-28T09:25:44.827Z,26.10
2022-08-28T09:28:19.047Z,26.30
2022-08-28T09:31:22.358Z,26.70
2022-08-28T09:33:55.214Z,26.90
2022-08-28T09:36:39.592Z,27.40
2022-08-28T09:39:36.088Z,28.10
2022-08-28T09:42:42.228Z,28.70
2022-08-28T09:45:23.428Z,29.20
2022-08-28T09:48:00.138Z,29.70
2022-08-28T09:50:48.645Z,30.30
2022-08-28T09:53:24.777Z,30.80
2022-08-28T09:56:14.923Z,31.00
2022-08-28T09:59:02.480Z,31.30
2022-08-28T10:02:39.031Z,31.40
2022-08-28T10:06:14.066Z,31.20
2022-08-28T10:09:05.447Z,31.00
2022-08-28T10:15:34.692Z,31.40
2022-08-28T10:18:22.153Z,31.40
2022-08-28T10:21:23.745Z,31.50
2022-08-28T10:24:26.056Z,31.60
2022-08-28T10:27:34.517Z,31.60
2022-08-28T10:30:24.016Z,31.70
2022-08-28T10:33:24.624Z,31.90
2022-08-28T10:36:36.356Z,32.40
2022-08-28T10:39:54.702Z,33.10
2022-08-28T10:42:36.335Z,33.60
2022-08-28T10:45:26.534Z,33.90
2022-08-28T10:48:01.782Z,33.80
2022-08-28T10:50:43.254Z,33.60
2022-08-28T10:53:20.088Z,33.20
2022-08-28T10:56:07.369Z,32.90
2022-08-28T10:58:59.811Z,32.70
2022-08-28T11:01:36.111Z,32.50
2022-08-28T11:04:24.925Z,32.40
2022-08-28T11:06:57.175Z,32.40
2022-08-28T11:09:48.472Z,32.60
2022-08-28T11:12:19.983Z,32.70
2022-08-28T11:14:56.241Z,32.90
2022-08-28T11:17:50.101Z,33.00
2022-08-28T11:21:07.849Z,32.80
2022-08-28T11:24:06.624Z,32.70
2022-08-28T11:27:26.233Z,32.70
2022-08-28T11:30:11.664Z,32.70
2022-08-28T11:33:01.213Z,32.40
2022-08-28T11:35:49.367Z,32.20
2022-08-28T11:38:42.642Z,31.80
2022-08-28T11:41:39.076Z,31.50
2022-08-28T11:44:13.444Z,31.20
2022-08-28T11:46:49.755Z,30.80
2022-08-28T11:49:27.897Z,30.60
2022-08-28T11:52:22.919Z,30.30
2022-08-28T11:55:14.166Z,30.00
2022-08-28T12:01:01.572Z,29.60
2022-08-28T12:03:53.993Z,29.50
2022-08-28T12:06:50.708Z,29.40
2022-08-28T12:09:42.933Z,29.30
2022-08-28T12:12:47.657Z,29.20
2022-08-28T12:15:45.223Z,29.10
2022-08-28T12:18:24.857Z,29.00
2022-08-28T12:21:07.194Z,29.00
2022-08-28T12:24:26.571Z,29.00
2022-08-28T12:27:25.204Z,29.00
2022-08-28T12:30:19.434Z,29.00
2022-08-28T12:33:32.533Z,29.10
2022-08-28T12:39:24.578Z,29.10
2022-08-28T12:42:15.490Z,29.00
2022-08-28T12:44:55.479Z,28.90
2022-08-28T12:47:40.584Z,28.90
2022-08-28T12:50:48.352Z,28.90
2022-08-28T12:53:22.446Z,28.90
2022-08-28T12:55:53.372Z,28.90
2022-08-28T12:58:37.624Z,28.80
2022-08-28T13:01:30.797Z,28.70
2022-08-28T13:04:32.090Z,28.60
2022-08-28T13:07:12.470Z,28.40
2022-08-28T13:09:49.558Z,28.30
2022-08-28T13:12:55.203Z,28.10
2022-08-28T13:16:02.289Z,27.90
2022-08-28T13:18:38.964Z,27.70
2022-08-28T13:21:34.399Z,27.50
2022-08-28T13:24:23.282Z,27.40
2022-08-28T13:27:14.168Z,27.30
2022-08-28T13:29:52.481Z,27.20
2022-08-28T13:32:33.466Z,27.10
2022-08-28T13:35:33.244Z,27.00
2022-08-28T13:38:04.066Z,26.90
2022-08-28T13:40:59.644Z,26.80
2022-08-28T13:43:45.069Z,26.80
2022-08-28T13:46:12.737Z,26.70
2022-08-28T13:48:40.154Z,26.70
2022-08-28T13:51:24.637Z,26.60
2022-08-28T13:54:41.614Z,26.60
2022-08-28T13:57:17.261Z,26.60
2022-08-28T13:59:55.774Z,26.60
2022-08-28T14:02:42.502Z,26.60
2022-08-28T14:05:31.838Z,26.70
2022-08-28T14:08:15.701Z,26.70
2022-08-28T14:10:48.461Z,26.70
2022-08-28T14:13:21.078Z,26.80
2022-08-28T14:16:04.197Z,26.80
2022-08-28T14:18:35.814Z,26.90
2022-08-28T14:21:09.561Z,26.90
2022-08-28T14:23:47.439Z,26.90
2022-08-28T14:26:21.545Z,27.00
2022-08-28T14:28:51.073Z,27.00
2022-08-28T14:31:24.679Z,27.10
2022-08-28T14:34:09.916Z,27.20
2022-08-28T14:36:45.870Z,27.30
2022-08-28T14:39:30.374Z,27.40
2022-08-28T14:41:59.956Z,27.50
2022-08-28T14:44:37.382Z,27.60
2022-08-28T14:47:12.441Z,27.60
2022-08-28T14:49:40.233Z,27.70
2022-08-28T14:52:22.111Z,27.80
2022-08-28T14:54:58.577Z,27.80
2022-08-28T14:58:19.369Z,27.80
2022-08-28T15:00:26.188Z,27.90
2022-08-28T15:02:57.698Z,27.90
2022-08-28T15:05:28.063Z,27.90
2022-08-28T15:07:57.053Z,27.90
2022-08-28T15:13:31.634Z,27.80
2022-08-28T15:16:15.438Z,27.80
2022-08-28T15:18:50.348Z,27.80
2022-08-28T15:21:25.900Z,27.80
2022-08-28T15:23:58.193Z,27.80
2022-08-28T15:26:45.207Z,27.80
2022-08-28T15:30:18.708Z,27.80
2022-08-28T15:32:58.679Z,27.70
2022-08-28T15:35:27.269Z,27.70
2022-08-28T15:37:55.221Z,27.70
2022-08-28T15:40:44.485Z,27.70
2022-08-28T15:43:16.673Z,27.70
2022-08-28T15:46:01.954Z,27.70
2022-08-28T15:48:38.591Z,27.70
2022-08-28T15:51:12.483Z,27.60
2022-08-28T15:53:47.742Z,27.60
2022-08-28T15:56:26.965Z,27.60
2022-08-28T15:58:54.465Z,27.60
2022-08-28T16:01:25.416Z,27.60
2022-08-28T16:03:54.965Z,27.60
2022-08-28T16:06:24.742Z,27.50
2022-08-28T16:08:52.099Z,27.50
2022-08-28T16:11:22.617Z,27.50
2022-08-28T16:13:51.507Z,27.40
2022-08-28T16:16:19.867Z,27.40
2022-08-28T16:18:47.601Z,27.40
2022-08-28T16:21:15.532Z,27.30
2022-08-28T16:23:42.967Z,27.30
2022-08-28T16:26:29.188Z,27.30
2022-08-28T16:29:15.062Z,27.20
2022-08-28T16:31:58.031Z,27.20
2022-08-28T16:34:38.183Z,27.20
2022-08-28T16:37:15.818Z,27.10
2022-08-28T16:40:21.755Z,27.10
2022-08-28T16:42:51.866Z,27.10
2022-08-28T16:45:29.765Z,27.10
2022-08-28T16:48:40.084Z,27.00
2022-08-28T16:54:01.262Z,26.90
2022-08-28T16:56:46.254Z,26.90
2022-08-28T17:02:34.584Z,26.80
2022-08-28T17:05:11.087Z,26.80
2022-08-28T17:07:40.193Z,26.80
2022-08-28T17:10:13.949Z,26.70
2022-08-28T17:13:52.606Z,26.70
2022-08-28T17:15:48.485Z,26.70
2022-08-28T17:18:48.869Z,26.60
2022-08-28T17:21:44.151Z,26.60
2022-08-28T17:24:15.148Z,26.60
2022-08-28T17:26:44.999Z,26.50
2022-08-28T17:32:02.332Z,26.40
2022-08-28T17:34:33.401Z,26.30
2022-08-28T17:37:04.553Z,26.30
2022-08-28T17:39:32.151Z,26.30
2022-08-28T17:42:00.005Z,26.20
2022-08-28T17:44:35.401Z,26.10
2022-08-28T17:47:03.321Z,26.10
2022-08-28T17:49:32.900Z,26.00
2022-08-28T17:52:04.519Z,26.00
2022-08-28T17:54:36.509Z,25.90
2022-08-28T17:57:04.758Z,25.90
2022-08-28T17:59:33.143Z,25.80
2022-08-28T18:02:01.391Z,25.80
2022-08-28T18:04:29.733Z,25.80
2022-08-28T18:06:57.986Z,25.70
2022-08-28T18:09:25.730Z,25.70
2022-08-28T18:11:54.174Z,25.60
2022-08-28T18:14:21.954Z,25.60
2022-08-28T18:16:52.051Z,25.60
2022-08-28T18:19:20.672Z,25.60
2022-08-28T18:21:48.640Z,25.50
2022-08-28T18:24:16.978Z,25.50
2022-08-28T18:26:47.432Z,25.50
2022-08-28T18:29:15.366Z,25.50
2022-08-28T18:31:43.772Z,25.40
2022-08-28T18:34:11.436Z,25.40
2022-08-28T18:36:41.591Z,25.40
2022-08-28T18:39:10.026Z,25.30
2022-08-28T18:41:43.393Z,25.30
2022-08-28T18:44:15.905Z,25.20
2022-08-28T18:46:48.215Z,25.20
2022-08-28T18:49:16.000Z,25.20
2022-08-28T18:51:50.419Z,25.10
2022-08-28T18:54:23.632Z,25.10
2022-08-28T18:56:51.117Z,25.10
2022-08-28T18:59:19.158Z,25.10
2022-08-28T19:01:46.859Z,25.10
2022-08-28T19:04:15.979Z,25.00
2022-08-28T19:06:44.332Z,25.00
2022-08-28T19:09:19.276Z,24.90
2022-08-28T19:11:48.833Z,24.90
2022-08-28T19:14:16.725Z,24.90
2022-08-28T19:16:59.013Z,24.80
2022-08-28T19:19:52.189Z,24.80
2022-08-28T19:22:19.931Z,24.70
2022-08-28T19:24:48.015Z,24.70
2022-08-28T19:27:15.832Z,24.70
2022-08-28T19:29:43.295Z,24.60
2022-08-28T19:32:10.998Z,24.60
2022-08-28T19:34:41.511Z,24.60
2022-08-28T19:37:09.098Z,24.60
2022-08-28T19:39:36.689Z,24.50
2022-08-28T19:42:09.403Z,24.50
2022-08-28T19:44:38.938Z,24.40
2022-08-28T19:47:06.897Z,24.40
2022-08-28T19:49:38.670Z,24.40
2022-08-28T19:52:08.303Z,24.40
2022-08-28T19:55:01.292Z,24.40
2022-08-28T19:57:28.715Z,24.30
2022-08-28T19:59:56.314Z,24.30
2022-08-28T20:02:24.409Z,24.30
2022-08-28T20:04:54.411Z,24.30
2022-08-28T20:07:22.867Z,24.20
2022-08-28T20:09:52.649Z,24.20
2022-08-28T20:12:20.626Z,24.20
2022-08-28T20:14:50.710Z,24.10
2022-08-28T20:17:21.173Z,24.20
2022-08-28T20:19:48.566Z,24.10
2022-08-28T20:22:16.101Z,24.10
2022-08-28T20:24:44.109Z,24.10
2022-08-28T20:27:12.160Z,24.10
2022-08-28T20:29:40.786Z,24.00
2022-08-28T20:32:11.028Z,24.00
2022-08-28T20:34:43.848Z,24.00
2022-08-28T20:37:19.774Z,23.90
2022-08-28T20:39:52.541Z,23.90
2022-08-28T20:42:31.782Z,23.90
2022-08-28T20:45:03.557Z,23.80
2022-08-28T20:47:52.475Z,23.80
2022-08-28T20:50:22.601Z,23.80
2022-08-28T20:52:51.560Z,23.80
2022-08-28T20:55:18.873Z,23.80
2022-08-28T20:57:46.282Z,23.80
2022-08-28T21:00:14.191Z,23.70
2022-08-28T21:02:41.806Z,23.70
2022-08-28T21:05:10.054Z,23.70
2022-08-28T21:07:37.933Z,23.70
2022-08-28T21:10:09.579Z,23.70
2022-08-28T21:12:47.526Z,23.60
2022-08-28T21:15:16.242Z,23.60
2022-08-28T21:17:43.850Z,23.60
2022-08-28T21:20:15.403Z,23.60
2022-08-28T21:22:43.648Z,23.50
2022-08-28T21:25:12.211Z,23.50
2022-08-28T21:27:40.324Z,23.50
2022-08-28T21:30:13.888Z,23.50
2022-08-28T21:32:41.905Z,23.50
2022-08-28T21:35:13.881Z,23.40
2022-08-28T21:37:43.864Z,23.40
2022-08-28T21:40:14.663Z,23.40
2022-08-28T21:42:42.724Z,23.40
2022-08-28T21:45:13.914Z,23.40
2022-08-28T21:47:42.554Z,23.30
2022-08-28T21:50:11.238Z,23.30
2022-08-28T21:52:39.106Z,23.30
2022-08-28T21:55:15.554Z,23.20
2022-08-28T21:57:43.786Z,23.20
2022-08-28T22:00:19.268Z,23.30
2022-08-28T22:02:47.843Z,23.20
2022-08-28T22:05:17.272Z,23.30
2022-08-28T22:07:47.264Z,23.20
2022-08-28T22:10:17.946Z,23.20
2022-08-28T22:12:45.319Z,23.20
2022-08-28T22:15:13.717Z,23.20
2022-08-28T22:17:41.380Z,23.20
2022-08-28T22:20:10.162Z,23.20
2022-08-28T22:22:56.335Z,23.10
2022-08-28T22:25:24.109Z,23.10
2022-08-28T22:27:52.208Z,23.10
2022-08-28T22:30:20.020Z,23.00
2022-08-28T22:32:48.093Z,23.00
2022-08-28T22:35:15.831Z,23.00
2022-08-28T22:38:04.585Z,22.90
2022-08-28T22:40:32.724Z,22.90
2022-08-28T22:43:03.496Z,22.90
2022-08-28T22:45:35.069Z,22.90
2022-08-28T22:48:02.610Z,22.80
2022-08-28T22:50:30.164Z,22.80
2022-08-28T22:52:57.596Z,22.80
2022-08-28T22:55:25.380Z,22.80
2022-08-28T22:57:54.006Z,22.80
2022-08-28T23:00:26.850Z,22.80
2022-08-28T23:02:56.149Z,22.80
2022-08-28T23:05:24.529Z,22.80
2022-08-28T23:07:52.220Z,22.80
2022-08-28T23:10:25.324Z,22.70
2022-08-28T23:13:04.999Z,22.80
2022-08-28T23:15:33.861Z,22.80
2022-08-28T23:18:02.236Z,22.70
2022-08-28T23:20:30.052Z,22.70
2022-08-28T23:22:58.339Z,22.70
2022-08-28T23:25:26.426Z,22.70
2022-08-28T23:28:12.478Z,22.70
2022-08-28T23:30:59.755Z,22.70
2022-08-28T23:33:27.356Z,22.70
2022-08-28T23:35:55.235Z,22.70
2022-08-28T23:38:23.153Z,22.70
2022-08-28T23:40:50.902Z,22.70
2022-08-28T23:43:18.493Z,22.60
2022-08-28T23:45:46.829Z,22.60
2022-08-28T23:48:15.701Z,22.60
2022-08-28T23:50:43.837Z,22.60
2022-08-28T23:53:11.891Z,22.60
2022-08-28T23:55:40.753Z,22.60
2022-08-28T23:58:08.187Z,22.50
